Time;durP1;ratioP1;P1;durP2;ratioP2;P2;SDS_P1;SDS_P2;PMS_P1;PMS_P2;Temp;Humidity;BMP_temperature;BMP_pressure;BME280_temperature;BME280_humidity;BME280_pressure;Samples;Min_cycle;Max_cycle;Signal;HPM_P1;HPM_P2
2022/09/12 00:34:02;;;;;;;9.45;6.95;;;;;;;11.09;100.00;101359.09;6192634;22;20009;-85
2022/09/12 00:59:48;;;;;;;7.30;5.82;;;;;;;11.10;100.00;101308.78;6199182;23;20031;-85
2022/09/12 01:02:15;;;;;;;8.27;6.22;;;;;;;11.69;100.00;101392.94;6188469;23;20020;-85
2022/09/12 01:04:42;;;;;;;10.48;6.20;;;;;;;12.49;100.00;101517.81;6189191;23;20001;-84
2022/09/12 01:07:08;;;;;;;7.22;6.30;;;;;;;12.31;100.00;101493.13;6188772;23;20052;-84
2022/09/12 01:09:35;;;;;;;11.85;6.47;;;;;;;12.53;100.00;101519.09;6214928;23;20009;-85
2022/09/12 01:17:14;;;;;;;9.48;6.85;;;;;;;11.49;100.00;101344.22;6209291;23;20008;-84
2022/09/12 01:19:56;;;;;;;7.60;6.07;;;;;;;11.10;100.00;101274.59;6188502;23;20008;-84
2022/09/12 01:22:27;;;;;;;7.85;6.63;;;;;;;12.72;100.00;101516.75;6214534;23;20005;-86
2022/09/12 01:25:09;;;;;;;8.77;6.25;;;;;;;11.15;100.00;101271.31;6213488;23;20008;-86
2022/09/12 01:30:24;;;;;;;9.38;6.10;;;;;;;12.78;100.00;101511.41;6210668;23;20021;-85
2022/09/12 01:33:15;;;;;;;8.35;5.90;;;;;;;11.88;100.00;101366.38;6214571;23;20085;-85
2022/09/12 02:11:59;;;;;;;11.20;6.03;;;;;;;12.10;100.00;101341.06;6208435;23;20012;-85
2022/09/12 02:22:15;;;;;;;10.23;6.30;;;;;;;12.04;100.00;101327.50;6191544;23;20009;-85
2022/09/12 02:24:45;;;;;;;11.00;6.50;;;;;;;11.88;100.00;101309.75;6213648;23;20008;-85
2022/09/12 02:48:05;;;;;;;8.15;5.40;;;;;;;11.70;100.00;101238.25;6191750;23;20859;-79
2022/09/12 02:50:31;;;;;;;9.80;5.47;;;;;;;13.28;100.00;101487.03;6154410;23;19990;-85
2022/09/12 02:53:02;;;;;;;9.30;5.78;;;;;;;13.24;100.00;101483.00;6129353;23;20050;-84
2022/09/12 02:55:29;;;;;;;12.27;5.80;;;;;;;13.27;100.00;101483.47;6153713;23;20068;-83
2022/09/12 03:00:36;;;;;;;9.05;5.50;;;;;;;11.76;100.00;101255.50;6204219;23;20023;-85
2022/09/12 03:03:39;;;;;;;10.35;5.60;;;;;;;13.26;100.00;101479.09;6187585;23;19989;-84
2022/09/12 03:16:52;;;;;;;10.88;5.47;;;;;;;13.32;100.00;101475.59;6209561;23;20216;-85
2022/09/12 03:19:28;;;;;;;7.30;5.30;;;;;;;13.34;100.00;101476.25;6212927;23;20085;-85
2022/09/12 03:22:02;;;;;;;6.78;4.88;;;;;;;13.35;100.00;101468.97;6187371;23;20004;-85
2022/09/12 03:25:04;;;;;;;6.15;5.15;;;;;;;13.35;100.00;101475.19;6212748;23;19996;-85
2022/09/12 03:27:35;;;;;;;8.20;5.28;;;;;;;13.36;100.00;101474.16;6213524;23;19989;-86
2022/09/12 03:30:03;;;;;;;8.23;5.00;;;;;;;13.33;100.00;101465.63;6213291;23;20005;-85
2022/09/12 03:32:41;;;;;;;9.13;5.38;;;;;;;13.40;100.00;101471.88;6203042;23;20791;-77
2022/09/12 03:35:07;;;;;;;7.15;4.78;;;;;;;12.12;100.00;101274.25;6128578;23;20005;-85
2022/09/12 03:37:32;;;;;;;7.25;5.13;;;;;;;12.13;100.00;101258.91;6152434;23;20002;-84
2022/09/12 03:39:58;;;;;;;6.85;5.65;;;;;;;12.13;100.00;101264.31;6128461;23;20049;-85
2022/09/12 03:42:23;;;;;;;10.30;5.78;;;;;;;12.62;100.00;101334.34;6153522;23;20033;-83
2022/09/12 03:44:49;;;;;;;7.07;5.38;;;;;;;13.42;100.00;101456.31;6128514;23;20020;-85
2022/09/12 03:47:14;;;;;;;6.25;4.95;;;;;;;13.35;100.00;101436.53;6153134;23;19997;-84
2022/09/12 03:49:39;;;;;;;9.30;5.13;;;;;;;13.44;100.00;101453.38;6129309;23;19997;-84
2022/09/12 03:52:05;;;;;;;8.30;5.63;;;;;;;13.43;100.00;101449.84;6128595;23;20017;-84
2022/09/12 03:54:30;;;;;;;9.27;5.10;;;;;;;13.40;100.00;101447.56;6153398;23;20021;-84
2022/09/12 03:56:55;;;;;;;9.35;5.40;;;;;;;13.34;100.00;101440.25;6128276;23;20009;-84
2022/09/12 03:59:21;;;;;;;7.57;4.90;;;;;;;13.29;100.00;101443.56;6153609;23;20026;-84
2022/09/12 04:09:32;;;;;;;11.38;5.28;;;;;;;12.32;100.00;101295.13;6157709;23;21013;-76
2022/09/12 04:14:33;;;;;;;6.60;5.30;;;;;;;12.73;100.00;101361.81;6193530;23;20209;-85
2022/09/12 04:17:01;;;;;;;8.30;6.05;;;;;;;11.94;100.00;101247.78;6212497;23;20000;-86
2022/09/12 04:19:27;;;;;;;8.93;5.60;;;;;;;11.61;100.00;101201.69;6187361;23;20004;-84
2022/09/12 04:32:13;;;;;;;9.10;5.45;;;;;;;12.15;100.00;101290.06;6188668;23;20043;-84
2022/09/12 04:34:39;;;;;;;7.60;5.95;;;;;;;12.89;100.00;101415.50;6189007;23;20011;-83
2022/09/12 04:39:40;;;;;;;11.00;6.22;;;;;;;12.16;100.00;101285.50;6230074;22;20018;-84
2022/09/12 04:42:06;;;;;;;9.45;6.68;;;;;;;12.14;100.00;101295.63;6218875;23;20000;-84
2022/09/12 04:44:31;;;;;;;9.35;6.25;;;;;;;12.08;100.00;101275.66;6244123;23;20016;-84
2022/09/12 04:46:57;;;;;;;8.65;6.38;;;;;;;12.32;100.00;101317.56;6218008;23;20016;-84
2022/09/12 04:49:23;;;;;;;8.20;6.30;;;;;;;13.17;100.00;101440.56;6219331;23;20008;-84
2022/09/12 04:51:51;;;;;;;9.65;6.18;;;;;;;13.21;100.00;101457.22;6218408;23;19989;-84
2022/09/12 04:54:18;;;;;;;10.73;6.50;;;;;;;11.71;100.00;101202.16;6244683;23;20108;-84
2022/09/12 04:56:45;;;;;;;8.88;6.35;;;;;;;11.81;100.00;101233.34;6218271;23;20008;-83
2022/09/12 04:59:14;;;;;;;10.25;6.40;;;;;;;11.72;100.00;101211.94;6219051;23;19992;-83
2022/09/12 05:01:41;;;;;;;8.07;6.70;;;;;;;12.16;100.00;101272.00;6218678;23;20036;-84
2022/09/12 05:04:08;;;;;;;11.35;6.10;;;;;;;11.97;100.00;101235.75;6244153;23;19997;-83
2022/09/12 05:06:36;;;;;;;9.80;6.30;;;;;;;12.53;100.00;101307.69;6243638;23;20031;-84
2022/09/12 05:09:03;;;;;;;12.10;6.75;;;;;;;11.97;100.00;101211.50;6216951;23;20004;-84
2022/09/12 05:11:32;;;;;;;11.40;6.50;;;;;;;11.98;100.00;101196.97;6217787;23;20005;-84
2022/09/12 05:13:58;;;;;;;10.15;6.47;;;;;;;12.21;100.00;101227.19;6217801;23;20013;-84
2022/09/12 05:16:25;;;;;;;7.75;6.18;;;;;;;12.25;100.00;101216.84;6244065;23;19993;-83
2022/09/12 05:18:51;;;;;;;7.22;6.38;;;;;;;12.46;100.00;101234.78;6218334;23;20003;-83
2022/09/12 05:21:21;;;;;;;8.43;6.10;;;;;;;14.04;100.00;101441.69;6243651;23;19996;-84
2022/09/12 05:23:50;;;;;;;8.27;5.93;;;;;;;12.75;100.00;101212.06;6244066;23;20061;-84
2022/09/12 05:26:26;;;;;;;10.07;6.10;;;;;;;12.70;100.00;101204.56;6217863;23;20020;-84
2022/09/12 05:28:53;;;;;;;10.55;5.78;;;;;;;14.27;100.00;101452.13;6243791;23;19989;-85
2022/09/12 05:31:22;;;;;;;10.38;5.50;;;;;;;13.00;100.00;101266.34;6218304;23;20041;-83
2022/09/12 05:33:49;;;;;;;8.35;5.50;;;;;;;12.77;100.00;101228.88;6217531;23;20008;-84
2022/09/12 05:36:18;;;;;;;6.22;5.63;;;;;;;12.68;100.00;101213.88;6217740;23;20004;-83
2022/09/12 05:38:45;;;;;;;8.57;5.95;;;;;;;12.68;100.00;101181.47;6244392;23;20008;-83
2022/09/12 05:41:16;;;;;;;9.25;5.65;;;;;;;12.96;100.00;101221.88;6243675;23;19996;-84
2022/09/12 05:43:42;;;;;;;10.85;5.78;;;;;;;13.17;100.00;101218.97;6244602;23;20045;-84
2022/09/12 05:46:14;;;;;;;6.28;5.43;;;;;;;13.20;100.00;101208.81;6244381;23;20011;-84
2022/09/12 05:48:41;;;;;;;9.63;6.03;;;;;;;14.34;100.00;101360.09;6244521;23;20031;-84
2022/09/12 05:51:18;;;;;;;10.00;5.07;;;;;;;15.01;100.00;101458.31;6218029;23;19999;-84
2022/09/12 05:53:46;;;;;;;8.23;5.13;;;;;;;13.35;100.00;101193.25;6218296;23;20013;-83
2022/09/12 05:56:24;;;;;;;5.45;4.68;;;;;;;14.96;100.00;101441.84;6243414;23;20040;-83
2022/09/12 05:58:57;;;;;;;5.57;4.70;;;;;;;13.85;100.00;101286.44;6243910;23;20008;-84
2022/09/12 06:01:24;;;;;;;5.70;4.45;;;;;;;14.40;100.00;101374.63;6217413;23;20035;-84
2022/09/12 06:03:53;;;;;;;6.55;4.40;;;;;;;14.95;100.00;101456.47;6244323;23;20000;-83
2022/09/12 06:06:20;;;;;;;8.32;4.70;;;;;;;14.97;100.00;101451.66;6244167;23;20011;-84
2022/09/12 06:08:49;;;;;;;6.43;4.30;;;;;;;13.47;100.00;101218.59;6217299;23;20039;-83
2022/09/12 06:11:18;;;;;;;8.13;4.63;;;;;;;13.90;100.00;101280.38;6243972;23;20009;-84
2022/09/12 06:13:44;;;;;;;5.85;4.53;;;;;;;15.04;100.00;101449.78;6217022;23;20019;-84
2022/09/12 06:16:16;;;;;;;10.75;4.45;;;;;;;13.95;100.00;101277.06;6243111;23;19996;-86
2022/09/12 06:18:47;;;;;;;7.10;4.22;;;;;;;14.86;100.00;101404.38;6242604;23;19996;-84
2022/09/12 06:21:13;;;;;;;5.15;3.92;;;;;;;13.85;100.00;101232.31;6216048;23;20323;-84
2022/09/12 06:23:40;;;;;;;7.30;4.40;;;;;;;13.82;100.00;101211.09;6242878;23;20008;-84
2022/09/12 06:26:09;;;;;;;6.30;4.03;;;;;;;14.38;100.00;101287.41;6242488;23;20213;-83
2022/09/12 06:28:51;;;;;;;7.32;4.25;;;;;;;15.03;100.00;101385.75;6216572;23;19992;-84
2022/09/12 06:31:19;;;;;;;8.65;4.13;;;;;;;14.32;100.00;101256.56;6217303;23;20019;-83
2022/09/12 06:33:48;;;;;;;6.20;4.07;;;;;;;14.34;100.00;101239.09;6217751;23;20072;-82
2022/09/12 06:36:21;;;;;;;5.18;3.72;;;;;;;15.14;100.00;101332.78;6243573;23;20013;-84
2022/09/12 06:38:50;;;;;;;5.28;4.00;;;;;;;15.28;100.00;101362.28;6242781;23;20039;-83
2022/09/12 06:41:23;;;;;;;6.03;4.18;;;;;;;14.93;100.00;101282.41;6243138;23;20004;-84
2022/09/12 06:43:49;;;;;;;5.45;4.03;;;;;;;15.49;100.00;101374.69;6242213;23;20015;-82
2022/09/12 06:46:15;;;;;;;7.88;3.97;;;;;;;14.69;100.00;101232.50;6217281;23;19997;-84
2022/09/12 06:48:41;;;;;;;5.03;4.10;;;;;;;14.83;100.00;101235.97;6217122;23;20047;-82
2022/09/12 06:51:12;;;;;;;9.20;4.40;;;;;;;15.28;100.00;101297.22;6243015;23;20179;-84
2022/09/12 06:53:49;;;;;;;6.07;3.72;;;;;;;15.00;100.00;101237.97;6217761;23;20019;-84
2022/09/12 06:56:20;;;;;;;6.38;3.90;;;;;;;16.55;100.00;101470.81;6217594;23;20007;-82
2022/09/12 06:58:48;;;;;;;6.95;3.80;;;;;;;16.18;100.00;101369.41;6217462;23;19984;-84
2022/09/12 07:01:32;;;;;;;4.75;4.00;;;;;;;16.76;100.00;101452.50;6215754;23;20070;-84
2022/09/12 07:04:01;;;;;;;6.55;3.72;;;;;;;15.36;100.00;101225.63;6242854;23;19993;-84
2022/09/12 07:06:30;;;;;;;5.25;3.72;;;;;;;15.74;100.00;101287.94;6216048;23;19995;-82
2022/09/12 07:09:00;;;;;;;6.45;3.55;;;;;;;15.59;100.00;101245.88;6217260;23;20055;-84
2022/09/12 07:11:31;;;;;;;6.15;3.45;;;;;;;15.62;100.00;101242.72;6243291;23;20008;-83
2022/09/12 07:13:58;;;;;;;5.30;3.55;;;;;;;17.01;100.00;101463.31;6242955;23;20003;-83
2022/09/12 07:16:24;;;;;;;6.18;3.30;;;;;;;16.60;100.00;101369.66;6216782;23;20028;-84
2022/09/12 07:18:56;;;;;;;4.05;3.35;;;;;;;17.13;100.00;101456.06;6216520;23;20070;-84
2022/09/12 07:21:22;;;;;;;5.60;3.05;;;;;;;15.73;100.00;101237.47;6242196;23;20047;-84
2022/09/12 07:23:48;;;;;;;6.70;3.70;;;;;;;17.18;100.00;101444.50;6242713;23;20027;-84
2022/09/12 07:26:15;;;;;;;4.13;3.05;;;;;;;16.41;100.00;101312.56;6243141;23;20008;-83
2022/09/12 07:28:41;;;;;;;8.38;3.05;;;;;;;16.29;100.00;101303.53;6216647;23;20057;-84
2022/09/12 07:31:17;;;;;;;8.52;3.35;;;;;;;15.70;100.00;101209.94;6217859;23;20017;-84
2022/09/12 07:33:43;;;;;;;3.88;2.97;;;;;;;16.10;100.00;101269.25;6242733;23;20046;-84
2022/09/12 07:36:15;;;;;;;4.38;3.20;;;;;;;16.75;100.00;101366.56;6216937;23;20052;-84
2022/09/12 07:38:41;;;;;;;6.30;3.10;;;;;;;15.83;100.00;101228.81;6211057;23;19993;-84
2022/09/12 07:41:18;;;;;;;3.63;3.10;;;;;;;16.13;100.00;101285.09;6212781;23;20006;-84
2022/09/12 07:43:44;;;;;;;4.88;3.55;;;;;;;16.40;100.00;101329.09;6212534;23;20028;-83
2022/09/12 07:53:55;;;;;;;4.85;3.03;;;;;;;17.48;100.00;101441.81;6191471;23;20071;-84
2022/09/12 07:56:21;;;;;;;4.53;3.17;;;;;;;17.55;100.00;101426.28;6181848;23;20215;-84
2022/09/12 07:58:56;;;;;;;4.55;2.97;;;;;;;17.35;100.00;101350.34;6182041;23;20001;-84
2022/09/12 08:01:22;;;;;;;3.67;2.60;;;;;;;16.78;100.00;101230.25;6156167;23;20044;-84
2022/09/12 08:03:52;;;;;;;9.93;3.10;;;;;;;17.87;100.00;101352.53;6157143;23;20005;-83
2022/09/12 08:06:20;;;;;;;4.45;2.67;;;;;;;17.66;100.00;101297.56;6156855;23;19993;-83
2022/09/12 08:08:47;;;;;;;5.72;2.63;;;;;;;18.69;100.00;101424.25;6157049;23;19993;-84
2022/09/12 08:11:15;;;;;;;4.97;2.75;;;;;;;18.84;100.00;101428.41;6182611;23;20008;-84
2022/09/12 08:13:43;;;;;;;3.67;2.58;;;;;;;18.50;100.00;101371.75;6182307;23;20013;-84
2022/09/12 08:16:22;;;;;;;5.47;2.50;;;;;;;17.64;100.00;101212.59;6157308;23;20028;-83
2022/09/12 08:18:49;;;;;;;2.53;1.92;;;;;;;17.66;100.00;101243.13;6157253;23;19997;-83
2022/09/12 08:21:26;;;;;;;3.65;2.20;;;;;;;17.36;100.00;101205.94;6156437;23;20010;-84
2022/09/12 08:24:02;;;;;;;2.88;2.10;;;;;;;18.28;100.00;101366.09;6182239;23;20049;-84
2022/09/12 08:26:29;;;;;;;6.25;2.03;;;;;;;17.86;100.00;101291.00;6181923;23;20017;-83
2022/09/12 08:28:55;;;;;;;3.95;2.17;;;;;;;17.81;100.00;101276.19;6156404;23;20012;-84
2022/09/12 08:31:23;;;;;;;5.50;2.55;;;;;;;17.68;100.00;101257.34;6156492;23;20001;-84
2022/09/12 08:33:49;;;;;;;4.90;2.25;;;;;;;17.97;100.00;101282.00;6182529;23;19997;-83
2022/09/12 08:36:20;;;;;;;4.32;2.25;;;;;;;17.78;100.00;101249.44;6157125;23;20025;-84
2022/09/12 08:38:47;;;;;;;2.72;2.00;;;;;;;17.88;100.00;101229.81;6157803;23;20033;-84
2022/09/12 08:41:37;;;;;;;2.42;1.90;;;;;;;19.23;100.00;101427.59;6157362;23;20008;-83
2022/09/12 08:47:20;;;;;;;3.85;2.25;;;;;;;18.02;100.00;101230.38;6241572;23;20064;-84
2022/09/12 08:49:58;;;;;;;3.40;1.85;;;;;;;19.24;100.00;101415.66;6242356;23;20003;-83
2022/09/12 08:52:34;;;;;;;3.45;2.25;;;;;;;18.22;100.00;101263.50;6217216;23;19993;-84
2022/09/12 08:55:01;;;;;;;3.03;2.38;;;;;;;18.72;100.00;101342.00;6215791;23;20009;-84
2022/09/12 08:57:27;;;;;;;4.28;2.10;;;;;;;18.42;100.00;101289.56;6242079;23;19995;-84
2022/09/12 08:59:53;;;;;;;3.92;1.95;;;;;;;18.27;100.00;101236.38;6241978;23;20048;-83
2022/09/12 09:02:25;;;;;;;2.13;1.73;;;;;;;19.41;100.00;101412.16;6242417;23;20009;-83
2022/09/12 09:04:56;;;;;;;3.85;1.98;;;;;;;19.38;100.00;101415.38;6242057;23;20004;-81
2022/09/12 09:08:01;;;;;;;3.25;2.33;;;;;;;19.48;100.00;101415.56;6242101;23;20019;-82
2022/09/12 09:10:26;;;;;;;3.45;2.25;;;;;;;19.57;100.00;101419.56;6243098;23;20008;-85
2022/09/12 09:14:46;;;;;;;6.75;2.58;;;;;;;19.05;100.00;101328.78;6218612;23;20020;-83
2022/09/12 09:16:24;;;;;;;3.38;2.08;;;;;;;19.91;100.00;101403.28;6202863;23;20020;-79
2022/09/12 09:18:52;;;;;;;4.40;2.05;;;;;;;19.44;98.95;101297.88;6193095;23;20056;-81
2022/09/12 09:21:24;;;;;;;3.38;2.00;;;;;;;18.87;97.62;101191.53;6180035;23;20028;-83
2022/09/12 09:24:01;;;;;;;1.92;1.63;;;;;;;19.76;95.65;101294.59;6184112;23;20054;-83
2022/09/12 09:26:49;;;;;;;4.47;2.30;;;;;;;20.45;95.24;101406.31;6158135;23;20223;-84
2022/09/12 09:29:18;;;;;;;5.35;2.53;;;;;;;20.52;94.52;101407.00;6179997;23;20019;-84
2022/09/12 09:31:50;;;;;;;3.97;2.30;;;;;;;19.15;94.29;101209.75;6184434;23;19994;-84
2022/09/12 09:36:56;;;;;;;4.35;2.42;;;;;;;19.82;95.22;101331.84;6211356;23;20037;-82
2022/09/12 09:39:38;;;;;;;4.90;2.55;;;;;;;20.24;95.04;101402.47;6207434;23;20005;-80
2022/09/12 09:42:13;;;;;;;2.65;2.42;;;;;;;20.17;95.04;101399.88;6212520;23;19999;-83
2022/09/12 09:44:40;;;;;;;3.70;2.58;;;;;;;18.91;95.41;101210.97;6185692;23;20001;-81
2022/09/12 09:47:09;;;;;;;3.45;2.80;;;;;;;18.71;95.51;101193.13;6183955;23;19992;-82
2022/09/12 09:49:36;;;;;;;3.40;2.20;;;;;;;18.58;95.71;101198.03;6212088;23;20056;-82
2022/09/12 09:52:04;;;;;;;4.03;2.20;;;;;;;18.53;96.34;101166.88;6186698;23;19997;-81
2022/09/12 09:54:40;;;;;;;3.80;2.30;;;;;;;18.71;96.42;101190.41;6186691;23;19997;-84
2022/09/12 09:57:34;;;;;;;3.95;2.10;;;;;;;18.69;96.22;101195.25;6185533;23;20001;-83
2022/09/12 10:00:20;;;;;;;3.67;1.92;;;;;;;19.93;96.08;101390.19;6186804;23;20008;-83
2022/09/12 10:03:13;;;;;;;3.10;1.90;;;;;;;19.97;96.46;101387.78;6212675;23;20008;-83
2022/09/12 10:05:47;;;;;;;4.03;2.10;;;;;;;18.89;96.50;101233.00;6187064;23;19996;-83
2022/09/12 10:08:27;;;;;;;3.80;2.05;;;;;;;19.09;96.43;101276.22;6186233;23;20060;-83
2022/09/12 10:10:58;;;;;;;2.15;1.73;;;;;;;18.53;96.07;101188.69;6186383;23;19997;-82
2022/09/12 10:13:36;;;;;;;5.57;2.20;;;;;;;19.15;95.26;101261.59;6184290;23;20009;-83
2022/09/12 10:16:07;;;;;;;2.55;1.70;;;;;;;19.62;93.75;101321.38;6212504;23;20008;-83
2022/09/12 10:18:37;;;;;;;3.33;1.65;;;;;;;20.09;91.98;101386.63;6185927;23;19993;-84
2022/09/12 10:21:28;;;;;;;2.60;1.35;;;;;;;19.43;91.36;101266.16;6184819;23;20035;-82
2022/09/12 10:24:02;;;;;;;3.63;1.67;;;;;;;18.78;91.00;101169.28;6185405;23;20005;-83
2022/09/12 10:26:33;;;;;;;3.72;1.60;;;;;;;19.15;90.82;101212.50;6184504;23;20005;-81
2022/09/12 10:29:05;;;;;;;6.18;2.00;;;;;;;20.37;90.43;101401.28;6210834;23;20009;-82
2022/09/12 10:31:52;;;;;;;6.13;1.77;;;;;;;19.49;89.63;101246.06;6184508;23;20004;-81
2022/09/12 10:34:24;;;;;;;3.05;1.60;;;;;;;18.95;89.72;101163.88;6200266;23;20017;-81
2022/09/12 10:36:53;;;;;;;4.65;1.60;;;;;;;19.47;89.88;101258.34;6211441;23;20013;-83
2022/09/12 10:39:19;;;;;;;1.75;1.40;;;;;;;18.94;87.82;101164.09;6206833;23;20024;-82
2022/09/12 10:41:46;;;;;;;3.85;1.50;;;;;;;18.92;87.00;101169.00;6184170;23;20057;-82
2022/09/12 10:44:34;;;;;;;2.80;1.60;;;;;;;19.51;86.70;101248.56;6182760;23;20005;-81
2022/09/12 10:47:19;;;;;;;2.42;1.50;;;;;;;19.68;86.56;101256.78;6183591;23;20028;-82
2022/09/12 10:49:45;;;;;;;3.88;1.58;;;;;;;20.02;86.46;101298.56;6211586;23;19997;-81
2022/09/12 10:52:24;;;;;;;1.60;1.20;;;;;;;19.76;84.64;101250.91;6211479;23;20011;-82
2022/09/12 10:54:51;;;;;;;3.40;1.60;;;;;;;19.70;85.18;101250.00;6185834;23;20005;-82
2022/09/12 10:57:29;;;;;;;2.50;1.50;;;;;;;20.54;84.39;101372.03;6212073;23;20007;-84
2022/09/12 11:00:18;;;;;;;4.18;1.23;;;;;;;19.10;83.57;101174.19;6210717;23;20016;-82
2022/09/12 11:02:53;;;;;;;3.63;1.13;;;;;;;19.06;82.92;101150.41;6211439;23;19989;-82
2022/09/12 11:05:46;;;;;;;1.63;1.33;;;;;;;20.44;82.94;101371.88;6160510;23;20007;-81
2022/09/12 11:08:30;;;;;;;3.28;1.52;;;;;;;20.48;82.98;101358.53;6185045;23;20049;-82
2022/09/12 11:11:01;;;;;;;1.73;1.20;;;;;;;20.05;83.28;101306.25;6185346;23;20005;-82
2022/09/12 11:13:27;;;;;;;2.75;1.33;;;;;;;20.42;83.52;101361.16;6185181;23;20005;-82
2022/09/12 11:16:08;;;;;;;3.83;1.30;;;;;;;20.51;82.86;101356.16;6210927;23;19996;-82
2022/09/12 11:18:52;;;;;;;2.80;1.40;;;;;;;20.55;82.54;101367.41;6185051;23;19993;-82
2022/09/12 11:21:43;;;;;;;1.77;1.20;;;;;;;20.48;82.17;101364.81;6210304;23;20004;-82
2022/09/12 11:24:43;;;;;;;3.83;1.30;;;;;;;19.25;81.04;101151.81;6185149;23;20009;-81
2022/09/12 11:27:33;;;;;;;2.90;1.60;;;;;;;19.63;81.19;101208.38;6183206;23;20088;-82
2022/09/12 11:30:06;;;;;;;1.52;1.30;;;;;;;20.50;81.14;101350.91;6184124;23;20281;-82
2022/09/12 11:32:41;;;;;;;2.22;1.40;;;;;;;20.56;81.35;101358.97;6182763;23;19989;-81
2022/09/12 11:35:24;;;;;;;2.83;1.45;;;;;;;19.75;80.74;101223.84;6206483;23;20001;-81
2022/09/12 11:38:17;;;;;;;2.38;1.30;;;;;;;20.72;80.15;101359.16;6209111;23;19992;-81
2022/09/12 11:41:18;;;;;;;3.45;1.30;;;;;;;19.83;79.71;101216.03;6182489;23;20012;-82
2022/09/12 11:44:01;;;;;;;3.67;1.40;;;;;;;19.62;80.19;101189.50;6189555;23;20005;-81
2022/09/12 11:46:38;;;;;;;2.92;1.40;;;;;;;20.72;80.13;101356.41;6207876;23;20039;-82
2022/09/12 11:49:05;;;;;;;2.28;1.50;;;;;;;20.65;79.68;101356.59;6178803;23;20012;-81
2022/09/12 11:51:38;;;;;;;2.03;1.30;;;;;;;20.19;78.87;101280.22;6204563;23;20005;-81
2022/09/12 11:54:12;;;;;;;1.90;1.38;;;;;;;19.18;80.33;101149.25;6207529;23;19981;-81
2022/09/12 11:56:42;;;;;;;;;;;;;;;20.61;80.58;101353.56;6212206;23;19985;-83
2022/09/12 11:59:33;;;;;;;3.70;1.48;;;;;;;20.51;80.09;101367.09;6185845;23;20006;-82
2022/09/12 12:01:59;;;;;;;4.72;1.38;;;;;;;19.47;79.72;101181.91;6183563;23;20028;-83
2022/09/12 12:04:38;;;;;;;5.13;1.48;;;;;;;19.58;79.35;101202.00;6210718;23;20023;-82
2022/09/12 12:07:06;;;;;;;2.72;1.20;;;;;;;20.17;79.28;101284.31;6179564;23;20005;-83
2022/09/12 12:09:33;;;;;;;3.53;1.75;;;;;;;19.79;79.12;101203.16;6211791;23;19993;-82
2022/09/12 12:12:06;;;;;;;3.85;1.70;;;;;;;19.64;78.90;101181.94;6210753;23;20009;-82
2022/09/12 12:14:42;;;;;;;3.05;1.80;;;;;;;19.93;79.03;101209.91;6211716;23;20024;-82
2022/09/12 12:17:19;;;;;;;2.80;1.50;;;;;;;19.55;79.46;101137.81;6212368;23;20053;-83
2022/09/12 12:19:47;;;;;;;2.45;1.52;;;;;;;20.22;78.16;101223.41;6186165;23;20005;-83
2022/09/12 12:22:22;;;;;;;4.25;1.70;;;;;;;19.68;77.74;101140.22;6184672;23;20009;-81
2022/09/12 12:25:11;;;;;;;2.55;1.50;;;;;;;20.13;77.05;101214.81;6184695;23;20047;-82
2022/09/12 12:27:58;;;;;;;2.63;1.80;;;;;;;21.08;76.18;101344.84;6208748;23;19993;-81
2022/09/12 12:30:29;;;;;;;3.28;1.75;;;;;;;21.21;75.71;101345.53;6211103;23;20035;-82
2022/09/12 12:33:18;;;;;;;3.95;1.70;;;;;;;21.15;75.60;101330.13;6210450;23;20020;-82
2022/09/12 12:36:02;;;;;;;2.70;1.60;;;;;;;21.24;76.44;101334.88;6139644;23;20057;-81
2022/09/12 12:38:33;;;;;;;4.70;1.90;;;;;;;21.18;77.02;101319.50;6211068;23;20005;-82
2022/09/12 12:41:17;;;;;;;5.53;1.42;;;;;;;20.95;77.22;101320.59;6185668;23;20231;-83
2022/09/12 12:43:55;;;;;;;5.32;1.33;;;;;;;20.91;77.09;101311.25;6185951;23;20009;-83
2022/09/12 12:46:27;;;;;;;3.33;1.40;;;;;;;20.89;77.87;101321.63;6212616;23;20001;-82
2022/09/12 12:49:17;;;;;;;2.55;1.50;;;;;;;20.79;77.72;101281.28;6210599;23;19989;-81
2022/09/12 12:52:00;;;;;;;3.30;1.30;;;;;;;20.90;78.00;101304.16;6208051;23;20001;-80
2022/09/12 12:54:50;;;;;;;3.53;1.40;;;;;;;20.77;78.38;101288.94;6187692;23;19977;-82
2022/09/12 12:57:21;;;;;;;3.70;1.58;;;;;;;20.94;78.68;101288.03;6211858;23;20007;-82
2022/09/12 13:00:01;;;;;;;3.92;1.50;;;;;;;21.04;78.15;101278.03;6211432;23;20001;-81
2022/09/12 13:02:33;;;;;;;2.40;1.70;;;;;;;21.09;77.62;101280.84;6208897;23;20060;-81
2022/09/12 13:05:02;;;;;;;6.45;1.83;;;;;;;21.04;76.88;101288.16;6210849;23;20028;-80
2022/09/12 13:07:47;;;;;;;4.15;1.80;;;;;;;21.10;75.77;101287.13;6209651;23;20011;-82
2022/09/12 13:10:27;;;;;;;3.08;1.83;;;;;;;21.08;75.26;101261.91;6206310;23;20069;-81
2022/09/12 13:12:54;;;;;;;3.40;1.70;;;;;;;21.17;75.71;101275.97;6210190;23;19997;-81
2022/09/12 13:15:47;;;;;;;4.60;1.90;;;;;;;21.17;76.70;101275.97;6158609;23;20028;-82
2022/09/12 13:18:22;;;;;;;4.07;1.60;;;;;;;21.28;77.02;101262.13;6212394;23;20008;-81
2022/09/12 13:21:08;;;;;;;4.55;1.65;;;;;;;21.32;77.03;101265.16;6186295;23;20378;-81
2022/09/12 13:23:34;;;;;;;4.05;1.90;;;;;;;21.11;77.54;101247.72;6210830;23;20036;-84
2022/09/12 13:26:01;;;;;;;3.67;1.80;;;;;;;21.20;78.25;101256.31;6163847;23;20008;-84
2022/09/12 13:28:28;;;;;;;6.10;1.83;;;;;;;21.13;78.08;101234.63;6188331;23;19997;-84
2022/09/12 13:30:59;;;;;;;4.15;1.63;;;;;;;21.20;78.27;101251.66;6213604;23;19993;-83
2022/09/12 13:33:29;;;;;;;2.95;1.88;;;;;;;21.19;78.39;101246.41;6214243;23;20053;-84
2022/09/12 13:36:13;;;;;;;3.45;1.73;;;;;;;21.19;78.23;101247.28;6213681;23;20009;-84
2022/09/12 13:39:13;;;;;;;2.80;1.87;;;;;;;21.15;77.24;101246.13;6213998;23;20042;-83
2022/09/12 13:41:47;;;;;;;6.00;1.90;;;;;;;20.98;76.38;101240.75;6214279;23;20211;-83
2022/09/12 13:44:16;;;;;;;5.57;2.25;;;;;;;20.77;77.72;101227.97;6213457;23;19995;-84
2022/09/12 13:46:43;;;;;;;4.93;2.35;;;;;;;20.81;79.19;101243.59;6213848;23;20003;-83
2022/09/12 13:49:35;;;;;;;5.38;2.30;;;;;;;20.71;79.63;101235.28;6187158;23;20029;-83
2022/09/12 13:52:05;;;;;;;3.08;1.98;;;;;;;20.51;81.14;101224.91;6188138;23;19997;-83
2022/09/12 13:54:32;;;;;;;3.38;1.70;;;;;;;20.51;81.45;101233.13;6212921;23;20004;-83
2022/09/12 13:56:58;;;;;;;4.68;2.20;;;;;;;20.33;82.64;101217.84;6188263;23;20017;-84
2022/09/12 13:59:24;;;;;;;5.18;1.98;;;;;;;20.22;82.43;101220.69;6187447;23;20036;-84
2022/09/12 14:01:50;;;;;;;3.72;2.10;;;;;;;20.10;83.48;101209.91;6162714;23;20024;-84
2022/09/12 14:07:28;;;;;;;3.40;2.10;;;;;;;20.08;84.35;101201.13;6214017;23;20000;-84
2022/09/12 14:09:57;;;;;;;4.47;1.95;;;;;;;19.65;84.76;101143.44;6207610;23;20016;-84
2022/09/12 14:12:24;;;;;;;5.20;2.00;;;;;;;20.10;84.66;101197.06;6212343;23;20004;-83
2022/09/12 14:14:51;;;;;;;3.15;2.00;;;;;;;20.04;84.54;101189.03;6187414;23;20020;-83
2022/09/12 14:17:30;;;;;;;5.35;2.08;;;;;;;19.99;84.34;101178.84;6187099;23;19999;-83
2022/09/12 14:20:02;;;;;;;6.43;2.47;;;;;;;18.63;84.54;100961.81;6213630;23;20041;-84
2022/09/12 14:22:28;;;;;;;5.70;2.40;;;;;;;19.92;85.58;101184.50;6212737;23;20007;-84
2022/09/12 14:24:58;;;;;;;7.80;2.42;;;;;;;19.93;85.77;101180.72;6214003;23;19997;-84
2022/09/12 14:27:27;;;;;;;4.70;2.17;;;;;;;19.27;85.94;101086.94;6187327;23;20009;-83
2022/09/12 14:32:28;;;;;;;5.07;2.30;;;;;;;19.74;87.58;101164.88;6204514;23;20063;-84
2022/09/12 14:35:16;;;;;;;4.00;2.30;;;;;;;18.79;87.39;100995.63;6213026;23;20040;-84
2022/09/12 14:37:43;;;;;;;5.45;2.28;;;;;;;19.04;87.97;101047.03;6213199;23;20000;-83
2022/09/12 14:40:19;;;;;;;6.15;2.40;;;;;;;18.34;88.23;100942.00;6212873;23;20028;-84
2022/09/12 14:42:48;;;;;;;5.05;2.40;;;;;;;18.31;87.64;100940.63;6213437;23;19985;-83
2022/09/12 14:45:34;;;;;;;5.65;2.30;;;;;;;18.69;87.66;101012.63;6187204;23;20013;-83
2022/09/12 14:50:36;;;;;;;5.13;2.28;;;;;;;18.97;88.07;101032.72;6211096;23;20016;-83
2022/09/12 14:58:25;;;;;;;4.72;2.60;;;;;;;19.66;88.22;101155.19;6198503;23;20029;-84